createdAt,value
2023-03-13T00:01:33.847Z,-0.80
2023-03-13T00:04:00.604Z,-0.80
2023-03-13T00:06:28.692Z,-0.60
2023-03-13T00:08:55.882Z,-0.50
2023-03-13T00:11:22.600Z,-0.60
2023-03-13T00:13:49.255Z,-0.80
2023-03-13T00:16:16.670Z,-0.60
2023-03-13T00:18:47.307Z,-0.50
2023-03-13T00:21:14.235Z,-0.50
2023-03-13T00:23:40.942Z,-0.50
2023-03-13T00:26:15.340Z,-0.60
2023-03-13T00:28:43.016Z,-0.60
2023-03-13T00:31:11.636Z,-0.60
2023-03-13T00:33:39.781Z,-0.60
2023-03-13T00:36:10.090Z,-0.60
2023-03-13T00:38:37.068Z,-0.30
2023-03-13T00:41:04.919Z,-0.30
2023-03-13T00:43:31.793Z,-0.70
2023-03-13T00:45:58.478Z,-0.70
2023-03-13T00:48:26.444Z,-0.70
2023-03-13T00:50:53.149Z,-0.90
2023-03-13T00:53:20.101Z,-0.80
2023-03-13T00:55:52.764Z,-0.60
2023-03-13T00:58:19.504Z,-0.60
2023-03-13T01:00:46.169Z,-0.70
2023-03-13T01:03:13.076Z,-0.70
2023-03-13T01:05:40.108Z,-0.80
2023-03-13T01:08:06.746Z,-0.70
2023-03-13T01:10:34.015Z,-0.60
2023-03-13T01:13:00.961Z,-0.70
2023-03-13T01:15:27.605Z,-0.80
2023-03-13T01:17:54.277Z,-0.80
2023-03-13T01:20:20.921Z,-0.60
2023-03-13T01:22:47.553Z,-0.60
2023-03-13T01:25:14.176Z,-0.90
2023-03-13T01:27:40.820Z,-0.80
2023-03-13T01:30:07.879Z,-0.70
2023-03-13T01:32:34.560Z,-0.80
2023-03-13T01:35:01.309Z,-0.70
2023-03-13T01:37:27.922Z,-0.70
2023-03-13T01:39:54.535Z,-0.90
2023-03-13T01:42:21.183Z,-0.90
2023-03-13T01:44:55.820Z,-0.70
2023-03-13T01:47:22.871Z,-0.70
2023-03-13T01:49:51.090Z,-1.00
2023-03-13T01:52:23.822Z,-1.00
2023-03-13T01:54:54.194Z,-1.20
2023-03-13T01:57:20.807Z,-1.10
2023-03-13T01:59:49.491Z,-1.00
2023-03-13T02:02:16.232Z,-0.90
2023-03-13T02:04:47.095Z,-0.90
2023-03-13T02:07:16.960Z,-0.80
2023-03-13T02:09:48.299Z,-1.00
2023-03-13T02:12:16.336Z,-1.00
2023-03-13T02:14:44.601Z,-1.20
2023-03-13T02:17:11.388Z,-1.10
2023-03-13T02:19:41.845Z,-1.30
2023-03-13T02:22:28.705Z,-1.10
2023-03-13T02:24:58.558Z,-1.10
2023-03-13T02:27:25.216Z,-1.30
2023-03-13T02:29:51.933Z,-1.20
2023-03-13T02:32:18.624Z,-1.30
2023-03-13T02:34:47.354Z,-1.30
2023-03-13T02:37:14.771Z,-1.50
2023-03-13T02:39:43.227Z,-1.50
2023-03-13T02:42:09.903Z,-1.40
2023-03-13T02:44:40.349Z,-1.30
2023-03-13T02:47:09.754Z,-1.30
2023-03-13T02:49:36.438Z,-1.60
2023-03-13T02:52:14.129Z,-1.50
2023-03-13T02:54:41.216Z,-1.50
2023-03-13T02:57:07.849Z,-1.50
2023-03-13T02:59:34.814Z,-1.50
2023-03-13T03:02:01.655Z,-1.40
2023-03-13T03:04:28.287Z,-1.30
2023-03-13T03:06:54.914Z,-1.60
2023-03-13T03:09:22.388Z,-1.60
2023-03-13T03:11:49.517Z,-1.50
2023-03-13T03:14:16.577Z,-1.20
2023-03-13T03:16:43.310Z,-1.10
2023-03-13T03:19:11.006Z,-1.60
2023-03-13T03:21:37.840Z,-1.50
2023-03-13T03:24:04.546Z,-1.80
2023-03-13T03:26:31.430Z,-1.70
2023-03-13T03:28:58.236Z,-1.60
2023-03-13T03:31:24.942Z,-1.60
2023-03-13T03:33:51.814Z,-1.70
2023-03-13T03:36:20.122Z,-1.60
2023-03-13T03:38:47.032Z,-1.60
2023-03-13T03:41:14.289Z,-1.30
2023-03-13T03:43:41.194Z,-1.40
2023-03-13T03:46:07.910Z,-1.50
2023-03-13T03:48:35.000Z,-1.70
2023-03-13T03:51:01.655Z,-1.80
2023-03-13T03:53:28.959Z,-1.50
2023-03-13T03:55:55.870Z,-1.80
2023-03-13T03:58:22.676Z,-1.80
2023-03-13T04:00:49.379Z,-1.70
2023-03-13T04:03:16.941Z,-1.60
2023-03-13T04:05:43.673Z,-1.80
2023-03-13T04:08:10.653Z,-1.70
2023-03-13T04:10:37.380Z,-1.40
2023-03-13T04:13:04.016Z,-1.50
2023-03-13T04:15:30.704Z,-2.00
2023-03-13T04:17:57.372Z,-2.20
2023-03-13T04:20:24.057Z,-2.10
2023-03-13T04:22:53.326Z,-2.20
2023-03-13T04:25:20.139Z,-2.10
2023-03-13T04:27:46.769Z,-2.00
2023-03-13T04:30:13.576Z,-1.90
2023-03-13T04:32:40.551Z,-1.80
2023-03-13T04:35:07.599Z,-1.60
2023-03-13T04:37:34.381Z,-1.60
2023-03-13T04:40:01.599Z,-1.60
2023-03-13T04:42:30.070Z,-2.10
2023-03-13T04:44:56.713Z,-2.00
2023-03-13T04:47:23.370Z,-1.70
2023-03-13T04:49:50.011Z,-1.80
2023-03-13T04:52:16.681Z,-2.20
2023-03-13T04:54:43.329Z,-2.00
2023-03-13T04:57:09.971Z,-1.80
2023-03-13T04:59:36.665Z,-1.70
2023-03-13T05:02:03.527Z,-1.70
2023-03-13T05:04:30.153Z,-1.90
2023-03-13T05:06:56.797Z,-2.10
2023-03-13T05:09:23.470Z,-2.00
2023-03-13T05:11:50.752Z,-1.90
2023-03-13T05:14:17.399Z,-1.80
2023-03-13T05:16:44.033Z,-1.80
2023-03-13T05:19:10.648Z,-1.90
2023-03-13T05:21:37.289Z,-1.70
2023-03-13T05:24:04.079Z,-1.80
2023-03-13T05:26:30.789Z,-1.80
2023-03-13T05:28:57.418Z,-1.70
2023-03-13T05:31:24.133Z,-1.70
2023-03-13T05:33:50.802Z,-1.70
2023-03-13T05:36:17.443Z,-1.60
2023-03-13T05:38:44.120Z,-1.70
2023-03-13T05:41:10.784Z,-1.60
2023-03-13T05:43:37.545Z,-1.60
2023-03-13T05:46:04.460Z,-1.50
2023-03-13T05:48:31.177Z,-1.40
2023-03-13T05:50:57.806Z,-1.40
2023-03-13T05:53:24.453Z,-1.50
2023-03-13T05:55:51.099Z,-1.40
2023-03-13T05:58:17.736Z,-1.30
2023-03-13T06:00:44.380Z,-1.30
2023-03-13T06:03:13.759Z,-1.40
2023-03-13T06:05:40.912Z,-1.20
2023-03-13T06:08:07.550Z,-1.10
2023-03-13T06:10:34.349Z,-1.10
2023-03-13T06:13:13.773Z,-1.10
2023-03-13T06:15:44.071Z,-1.00
2023-03-13T06:18:10.713Z,-0.90
2023-03-13T06:20:37.337Z,-0.70
2023-03-13T06:23:04.005Z,-0.40
2023-03-13T06:25:30.645Z,-0.30
2023-03-13T06:27:57.353Z,-0.20
2023-03-13T06:30:24.041Z,-0.20
2023-03-13T06:32:50.775Z,-0.10
2023-03-13T06:35:17.638Z,0.10
2023-03-13T06:37:44.345Z,0.20
2023-03-13T06:40:11.330Z,0.30
2023-03-13T06:42:37.968Z,0.30
2023-03-13T06:45:04.851Z,0.40
2023-03-13T06:47:32.400Z,0.50
2023-03-13T06:49:59.085Z,0.70
2023-03-13T06:52:34.132Z,0.70
2023-03-13T06:55:08.467Z,0.80
2023-03-13T06:57:35.180Z,0.90
2023-03-13T07:00:01.982Z,1.00
2023-03-13T07:02:28.710Z,1.10
2023-03-13T07:04:55.339Z,1.40
2023-03-13T07:07:31.240Z,1.50
2023-03-13T07:09:59.030Z,1.70
2023-03-13T07:12:25.703Z,1.80
2023-03-13T07:14:52.412Z,2.00
2023-03-13T07:17:19.209Z,2.10
2023-03-13T07:19:45.919Z,2.20
2023-03-13T07:22:12.673Z,2.50
2023-03-13T07:24:39.431Z,2.60
2023-03-13T07:27:07.976Z,2.70
2023-03-13T07:29:34.975Z,2.80
2023-03-13T07:32:01.842Z,3.00
2023-03-13T07:34:28.612Z,3.20
2023-03-13T07:36:55.288Z,3.20
2023-03-13T07:39:22.006Z,3.30
2023-03-13T07:41:48.637Z,3.40
2023-03-13T07:44:15.400Z,3.50
2023-03-13T07:46:42.100Z,3.50
2023-03-13T07:49:08.856Z,3.60
2023-03-13T07:51:43.438Z,3.70
2023-03-13T07:54:11.770Z,3.80
2023-03-13T07:56:38.815Z,4.00
2023-03-13T07:59:05.587Z,4.20
2023-03-13T08:01:32.397Z,4.20
2023-03-13T08:04:01.693Z,4.30
2023-03-13T08:06:32.617Z,4.50
2023-03-13T08:09:00.380Z,4.60
2023-03-13T08:11:27.767Z,4.60
2023-03-13T08:14:14.358Z,4.70
2023-03-13T08:16:41.193Z,4.80
2023-03-13T08:19:07.898Z,4.90
2023-03-13T08:21:35.935Z,5.00
2023-03-13T08:24:12.923Z,5.10
2023-03-13T08:30:09.521Z,5.30
2023-03-13T08:35:58.033Z,5.30
2023-03-13T08:41:53.144Z,5.40
2023-03-13T08:44:22.989Z,5.50
2023-03-13T08:46:49.645Z,5.50
2023-03-13T08:49:17.817Z,5.80
2023-03-13T08:51:44.582Z,5.80
2023-03-13T08:54:11.257Z,5.80
2023-03-13T08:56:38.016Z,5.90
2023-03-13T08:59:05.504Z,5.90
2023-03-13T09:01:33.795Z,6.00
2023-03-13T09:04:03.879Z,6.00
2023-03-13T09:06:31.225Z,6.00
2023-03-13T09:08:58.373Z,6.30
2023-03-13T09:11:25.327Z,6.30
2023-03-13T09:14:13.801Z,6.40
2023-03-13T09:20:02.175Z,6.30
2023-03-13T09:29:18.937Z,7.10
2023-03-13T09:31:45.656Z,7.60
2023-03-13T09:34:12.300Z,7.50
2023-03-13T09:36:39.039Z,7.70
2023-03-13T09:39:11.566Z,7.80
2023-03-13T09:41:56.894Z,7.80
2023-03-13T09:44:54.120Z,8.00
2023-03-13T09:47:25.957Z,8.30
2023-03-13T09:49:55.674Z,8.20
2023-03-13T09:52:43.758Z,8.20
2023-03-13T09:55:22.859Z,8.10
2023-03-13T09:58:01.548Z,8.30
2023-03-13T10:00:34.168Z,8.50
2023-03-13T10:03:19.394Z,8.30
2023-03-13T10:05:50.985Z,8.30
2023-03-13T10:08:17.624Z,8.60
2023-03-13T10:10:47.285Z,8.90
2023-03-13T10:13:33.148Z,9.00
2023-03-13T10:16:01.872Z,8.60
2023-03-13T10:18:28.578Z,8.60
2023-03-13T10:20:58.402Z,8.90
2023-03-13T10:23:27.680Z,9.10
2023-03-13T10:25:54.574Z,9.30
2023-03-13T10:28:22.589Z,9.70
2023-03-13T10:30:52.593Z,9.90
2023-03-13T10:33:21.692Z,10.00
2023-03-13T10:35:59.301Z,10.40
2023-03-13T10:38:25.978Z,10.70
2023-03-13T10:41:06.886Z,10.90
2023-03-13T10:43:33.581Z,10.90
2023-03-13T10:46:01.362Z,10.70
2023-03-13T10:48:30.450Z,10.70
2023-03-13T10:51:02.205Z,11.10
2023-03-13T10:53:29.341Z,11.00
2023-03-13T10:56:00.477Z,11.00
2023-03-13T10:58:30.231Z,11.20
2023-03-13T11:01:17.272Z,11.40
2023-03-13T11:03:45.246Z,11.60
2023-03-13T11:06:32.238Z,11.50
2023-03-13T11:09:19.182Z,11.60
2023-03-13T11:11:45.868Z,11.30
2023-03-13T11:14:14.417Z,11.40
2023-03-13T11:16:46.772Z,12.00
2023-03-13T11:19:13.538Z,12.20
2023-03-13T11:21:57.137Z,11.90
2023-03-13T11:24:23.816Z,12.30
2023-03-13T11:27:04.769Z,12.30
2023-03-13T11:29:34.991Z,12.30
2023-03-13T11:32:07.379Z,12.20
2023-03-13T11:34:37.775Z,12.30
2023-03-13T11:37:12.276Z,12.40
2023-03-13T11:39:54.062Z,12.60
2023-03-13T11:42:31.138Z,12.80
2023-03-13T11:45:03.605Z,13.10
2023-03-13T11:47:33.148Z,13.20
2023-03-13T11:50:05.865Z,13.10
2023-03-13T11:52:35.550Z,12.80
2023-03-13T11:55:12.982Z,12.80
2023-03-13T11:57:39.624Z,12.70
2023-03-13T12:00:22.934Z,12.80
2023-03-13T12:02:51.904Z,12.80
2023-03-13T12:05:19.835Z,12.60
2023-03-13T12:08:01.888Z,12.80
2023-03-13T12:10:34.764Z,13.00
2023-03-13T12:13:12.870Z,13.10
2023-03-13T12:15:44.446Z,13.20
2023-03-13T12:18:26.305Z,13.10
2023-03-13T12:20:56.677Z,13.10
2023-03-13T12:23:38.811Z,13.00
2023-03-13T12:26:05.514Z,12.90
2023-03-13T12:28:32.195Z,13.30
2023-03-13T12:31:13.814Z,13.30
2023-03-13T12:33:52.094Z,13.20
2023-03-13T12:36:39.026Z,13.30
2023-03-13T12:39:24.447Z,13.50
2023-03-13T12:42:09.976Z,13.10
2023-03-13T12:44:36.662Z,13.40
2023-03-13T12:47:22.230Z,13.60
2023-03-13T12:49:54.920Z,13.40
2023-03-13T12:52:35.011Z,13.90
2023-03-13T12:55:19.857Z,13.80
2023-03-13T12:58:10.570Z,13.60
2023-03-13T13:00:40.239Z,13.30
2023-03-13T13:03:12.552Z,12.70
2023-03-13T13:05:39.270Z,13.00
2023-03-13T13:08:06.036Z,13.50
2023-03-13T13:10:32.749Z,13.70
2023-03-13T13:13:14.429Z,13.90
2023-03-13T13:16:01.797Z,14.10
2023-03-13T13:18:30.073Z,13.80
2023-03-13T13:21:18.056Z,14.20
2023-03-13T13:23:48.195Z,14.20
2023-03-13T13:26:27.163Z,14.20
2023-03-13T13:28:54.268Z,14.70
2023-03-13T13:31:39.693Z,14.70
2023-03-13T13:34:06.422Z,14.80
2023-03-13T13:36:41.095Z,14.70
2023-03-13T13:39:21.437Z,14.90
2023-03-13T13:41:56.028Z,15.10
2023-03-13T13:44:29.488Z,15.40
2023-03-13T13:46:57.057Z,14.60
2023-03-13T13:49:27.213Z,13.80
2023-03-13T13:52:03.476Z,14.00
2023-03-13T13:54:33.396Z,13.60
2023-03-13T13:57:00.976Z,13.70
2023-03-13T13:59:33.547Z,13.90
2023-03-13T14:02:10.549Z,14.10
2023-03-13T14:04:52.478Z,13.80
2023-03-13T14:07:42.298Z,13.40
2023-03-13T14:10:09.033Z,13.30
2023-03-13T14:12:36.899Z,13.30
2023-03-13T14:15:13.016Z,13.40
2023-03-13T14:17:40.851Z,13.30
2023-03-13T14:20:18.010Z,13.30
2023-03-13T14:22:46.482Z,13.30
2023-03-13T14:25:13.142Z,13.40
2023-03-13T14:27:47.227Z,13.50
2023-03-13T14:30:14.844Z,13.50
2023-03-13T14:32:41.731Z,13.40
2023-03-13T14:35:09.923Z,13.40
2023-03-13T14:37:37.733Z,13.50
2023-03-13T14:40:09.772Z,13.60
2023-03-13T14:42:43.557Z,13.60
2023-03-13T14:45:14.633Z,13.70
2023-03-13T14:47:41.719Z,13.50
2023-03-13T14:50:13.416Z,13.50
2023-03-13T14:52:45.275Z,13.40
2023-03-13T14:55:21.206Z,13.30
2023-03-13T14:57:54.842Z,13.30
2023-03-13T15:00:30.063Z,13.20
2023-03-13T15:03:16.732Z,13.20
2023-03-13T15:05:44.275Z,13.10
2023-03-13T15:08:13.649Z,13.20
2023-03-13T15:10:40.886Z,13.20
2023-03-13T15:13:19.884Z,13.20
2023-03-13T15:15:49.914Z,13.20
2023-03-13T15:18:27.070Z,13.20
2023-03-13T15:20:58.398Z,13.30
2023-03-13T15:23:25.424Z,13.30
2023-03-13T15:25:52.062Z,13.40
2023-03-13T15:28:19.997Z,13.40
2023-03-13T15:30:47.932Z,13.30
2023-03-13T15:33:19.530Z,13.30
2023-03-13T15:35:47.222Z,13.20
2023-03-13T15:38:14.944Z,13.20
2023-03-13T15:40:41.982Z,13.10
2023-03-13T15:43:09.100Z,13.00
2023-03-13T15:45:36.715Z,12.90
2023-03-13T15:48:03.959Z,12.90
2023-03-13T15:50:31.007Z,12.90
2023-03-13T15:52:58.459Z,12.90
2023-03-13T15:55:25.856Z,12.90
2023-03-13T15:57:52.678Z,12.90
2023-03-13T16:00:26.584Z,13.00
2023-03-13T16:02:53.420Z,12.90
2023-03-13T16:05:20.213Z,12.90
2023-03-13T16:07:46.902Z,12.70
2023-03-13T16:10:24.527Z,12.60
2023-03-13T16:12:52.043Z,12.30
2023-03-13T16:15:18.726Z,12.30
2023-03-13T16:17:45.412Z,12.20
2023-03-13T16:20:20.840Z,12.10
2023-03-13T16:22:47.680Z,12.10
2023-03-13T16:25:14.542Z,11.60
2023-03-13T16:27:42.016Z,11.20
2023-03-13T16:30:17.224Z,11.20
2023-03-13T16:32:44.145Z,11.20
2023-03-13T16:35:11.101Z,11.20
2023-03-13T16:37:37.781Z,11.10
2023-03-13T16:40:11.243Z,10.90
2023-03-13T16:42:37.913Z,10.40
2023-03-13T16:45:04.802Z,10.00
2023-03-13T16:47:31.721Z,10.10
2023-03-13T16:49:58.400Z,10.20
2023-03-13T16:52:25.054Z,10.10
2023-03-13T16:54:51.721Z,10.20
2023-03-13T16:57:20.240Z,10.10
2023-03-13T16:59:46.898Z,9.60
2023-03-13T17:02:17.802Z,9.50
2023-03-13T17:04:45.333Z,9.70
2023-03-13T17:07:23.242Z,9.50
2023-03-13T17:09:50.538Z,9.10
2023-03-13T17:12:17.749Z,9.30
2023-03-13T17:14:44.518Z,9.40
2023-03-13T17:17:21.921Z,9.30
2023-03-13T17:19:48.607Z,9.40
2023-03-13T17:22:16.740Z,9.40
2023-03-13T17:24:43.866Z,9.00
2023-03-13T17:27:14.658Z,8.90
2023-03-13T17:29:41.984Z,9.10
2023-03-13T17:32:12.590Z,9.00
2023-03-13T17:34:39.635Z,9.00
2023-03-13T17:37:14.328Z,9.00
2023-03-13T17:39:40.974Z,8.70
2023-03-13T17:42:08.022Z,8.60
2023-03-13T17:44:34.844Z,8.60
2023-03-13T17:47:01.540Z,8.60
2023-03-13T17:49:30.965Z,8.60
2023-03-13T17:51:57.639Z,8.60
2023-03-13T17:54:24.276Z,8.60
2023-03-13T17:56:52.510Z,8.30
2023-03-13T17:59:19.205Z,8.10
2023-03-13T18:01:45.978Z,8.10
2023-03-13T18:04:13.181Z,8.20
2023-03-13T18:06:42.834Z,8.20
2023-03-13T18:09:16.926Z,7.90
2023-03-13T18:11:44.011Z,7.80
2023-03-13T18:14:11.117Z,7.30
2023-03-13T18:16:40.544Z,7.10
2023-03-13T18:19:24.042Z,6.90
2023-03-13T18:22:10.792Z,6.90
2023-03-13T18:24:37.471Z,6.80
2023-03-13T18:27:09.938Z,7.10
2023-03-13T18:29:36.594Z,7.30
2023-03-13T18:32:03.282Z,7.10
2023-03-13T18:34:30.115Z,6.80
2023-03-13T18:36:57.097Z,6.50
2023-03-13T18:39:23.916Z,6.40
2023-03-13T18:41:52.344Z,6.60
2023-03-13T18:44:20.896Z,6.90
2023-03-13T18:46:47.799Z,6.80
2023-03-13T18:49:17.291Z,6.70
2023-03-13T18:51:44.486Z,6.20
2023-03-13T18:54:11.168Z,6.10
2023-03-13T18:56:38.345Z,5.90
2023-03-13T18:59:05.325Z,5.70
2023-03-13T19:01:32.292Z,5.80
2023-03-13T19:04:00.141Z,5.70
2023-03-13T19:06:28.875Z,5.90
2023-03-13T19:08:57.749Z,6.00
2023-03-13T19:11:26.385Z,6.00
2023-03-13T19:13:53.205Z,5.30
2023-03-13T19:16:21.408Z,5.30
2023-03-13T19:18:49.099Z,5.10
2023-03-13T19:21:17.132Z,5.10
2023-03-13T19:23:44.435Z,5.40
2023-03-13T19:26:15.097Z,5.40
2023-03-13T19:28:41.770Z,5.00
2023-03-13T19:31:08.421Z,4.80
2023-03-13T19:33:35.114Z,4.90
2023-03-13T19:36:01.782Z,5.30
2023-03-13T19:38:28.514Z,5.40
2023-03-13T19:40:55.182Z,4.90
2023-03-13T19:43:21.857Z,4.80
2023-03-13T19:45:48.666Z,4.80
2023-03-13T19:48:15.350Z,4.60
2023-03-13T19:54:12.893Z,4.80
2023-03-13T19:56:40.304Z,4.90
2023-03-13T19:59:09.905Z,5.00
2023-03-13T20:01:36.628Z,5.10
2023-03-13T20:04:03.307Z,4.40
2023-03-13T20:06:31.180Z,4.50
2023-03-13T20:08:59.462Z,4.70
2023-03-13T20:11:26.889Z,4.80
2023-03-13T20:13:53.545Z,4.90
2023-03-13T20:16:20.236Z,5.10
2023-03-13T20:18:48.759Z,4.70
2023-03-13T20:21:16.388Z,4.70
2023-03-13T20:24:20.357Z,4.80
2023-03-13T20:26:47.049Z,4.80
2023-03-13T20:29:13.720Z,4.70
2023-03-13T20:31:40.409Z,4.60
2023-03-13T20:34:07.065Z,4.80
2023-03-13T20:36:33.703Z,4.80
2023-03-13T20:39:00.383Z,4.50
2023-03-13T20:41:31.140Z,4.70
2023-03-13T20:43:57.948Z,4.80
2023-03-13T20:46:24.835Z,4.60
2023-03-13T20:48:51.516Z,4.70
2023-03-13T20:51:18.165Z,4.70
2023-03-13T20:53:44.841Z,4.70
2023-03-13T20:56:11.994Z,4.80
2023-03-13T20:58:38.895Z,4.80
2023-03-13T21:01:06.369Z,4.70
2023-03-13T21:03:36.012Z,4.80
2023-03-13T21:06:08.841Z,4.70
2023-03-13T21:08:37.581Z,4.70
2023-03-13T21:11:10.981Z,4.70
2023-03-13T21:13:37.642Z,4.60
2023-03-13T21:16:04.456Z,4.70
2023-03-13T21:18:31.196Z,4.50
2023-03-13T21:21:04.975Z,4.60
2023-03-13T21:23:31.848Z,4.80
2023-03-13T21:25:59.816Z,4.80
2023-03-13T21:28:27.030Z,4.70
2023-03-13T21:30:53.981Z,4.80
2023-03-13T21:33:20.684Z,4.90
2023-03-13T21:35:47.436Z,4.40
2023-03-13T21:38:14.200Z,4.70
2023-03-13T21:40:41.105Z,4.90
2023-03-13T21:43:07.770Z,4.90
2023-03-13T21:45:37.453Z,4.70
2023-03-13T21:48:04.117Z,4.80
2023-03-13T21:50:30.971Z,4.90
2023-03-13T21:52:57.610Z,4.80
2023-03-13T21:55:24.283Z,4.70
2023-03-13T21:57:51.017Z,4.50
2023-03-13T22:00:17.868Z,4.60
2023-03-13T22:02:44.577Z,4.70
2023-03-13T22:05:11.339Z,4.90
2023-03-13T22:07:38.068Z,5.40
2023-03-13T22:10:04.953Z,5.30
2023-03-13T22:12:31.601Z,5.10
2023-03-13T22:14:58.297Z,4.80
2023-03-13T22:17:24.942Z,4.80
2023-03-13T22:19:51.632Z,4.80
2023-03-13T22:22:19.975Z,4.90
2023-03-13T22:24:46.694Z,5.00
2023-03-13T22:27:13.554Z,4.80
2023-03-13T22:29:40.178Z,4.80
2023-03-13T22:32:06.885Z,4.70
2023-03-13T22:34:33.539Z,4.60
2023-03-13T22:37:00.254Z,4.80
2023-03-13T22:39:26.892Z,4.50
2023-03-13T22:41:53.540Z,4.80
2023-03-13T22:44:20.628Z,4.90
2023-03-13T22:46:48.040Z,4.70
2023-03-13T22:49:14.664Z,4.90
2023-03-13T22:51:41.312Z,5.10
2023-03-13T22:54:07.972Z,5.00
2023-03-13T22:56:34.639Z,4.80
2023-03-13T22:59:03.021Z,4.60
2023-03-13T23:01:29.732Z,4.80
2023-03-13T23:03:56.577Z,4.80
2023-03-13T23:06:24.549Z,4.70
2023-03-13T23:08:51.355Z,4.80
2023-03-13T23:11:18.434Z,4.60
2023-03-13T23:13:45.078Z,4.50
2023-03-13T23:16:12.598Z,4.50
2023-03-13T23:18:39.756Z,4.50
2023-03-13T23:21:07.814Z,4.60
2023-03-13T23:23:34.650Z,4.50
2023-03-13T23:26:01.841Z,5.00
2023-03-13T23:28:28.494Z,5.40
2023-03-13T23:30:55.177Z,5.00
2023-03-13T23:33:21.944Z,4.30
2023-03-13T23:35:48.727Z,4.70
2023-03-13T23:38:18.392Z,4.90
2023-03-13T23:40:45.139Z,4.60
2023-03-13T23:43:11.782Z,4.50
2023-03-13T23:45:38.469Z,4.60
2023-03-13T23:48:05.264Z,4.40
2023-03-13T23:50:31.997Z,4.50
2023-03-13T23:52:58.721Z,4.50
2023-03-13T23:55:25.395Z,4.70
2023-03-13T23:57:52.041Z,4.60
